Terminal Aerodrome Forecast
Issued by NWS Tampa Bay Area, FL

Home | Current Version | Previous Version | Text Only | Print | Product List | Glossary On
Versions: 1 2 3 4 5 6 7 8 9 10 11 12 13 14 15 16 17 18 19 20 21 22 23 24 25
000
FTUS42 KTBW 032325
TAFTPA
TAF
KTPA 032325Z 0400/0424 30006KT P6SM FEW030 SCT250
     FM040400 VRB05KT P6SM SCT250
     FM041200 00000KT P6SM VCSH SCT025 SCT250
     FM041500 25006KT P6SM VCTS SCT030CB SCT250
     FM042000 32007KT P6SM SCT040 BKN200=

USA.gov is the U.S. government's official web portal to all federal, state and local government web resources and services.